createdAt,value
2018-11-26T00:01:51.485Z,25.50
2018-11-26T00:04:19.678Z,26.07
2018-11-26T00:06:47.927Z,25.60
2018-11-26T00:09:16.145Z,25.00
2018-11-26T00:11:45.808Z,24.60
2018-11-26T00:14:14.065Z,25.30
2018-11-26T00:16:43.110Z,24.97
2018-11-26T00:19:11.397Z,25.10
2018-11-26T00:21:39.737Z,26.13
2018-11-26T00:24:07.958Z,24.37
2018-11-26T00:26:36.205Z,26.40
2018-11-26T00:29:04.577Z,26.03
2018-11-26T00:31:32.825Z,26.07
2018-11-26T00:34:01.179Z,25.27
2018-11-26T00:36:29.577Z,26.07
2018-11-26T00:38:57.857Z,25.10
2018-11-26T00:41:26.465Z,25.37
2018-11-26T00:43:54.826Z,25.10
2018-11-26T00:46:23.058Z,24.60
2018-11-26T00:48:51.386Z,27.47
2018-11-26T00:51:19.728Z,26.00
2018-11-26T00:53:48.198Z,25.63
2018-11-26T00:56:16.457Z,25.43
2018-11-26T00:58:44.806Z,28.50
2018-11-26T01:01:13.049Z,26.77
2018-11-26T01:03:41.318Z,25.70
2018-11-26T01:06:09.538Z,29.83
2018-11-26T01:08:37.858Z,24.87
2018-11-26T01:11:06.637Z,26.73
2018-11-26T01:13:35.018Z,27.03
2018-11-26T01:16:05.378Z,27.23
2018-11-26T01:18:33.827Z,27.10
2018-11-26T01:21:02.065Z,26.07
2018-11-26T01:23:30.697Z,27.53
2018-11-26T01:25:58.918Z,26.63
2018-11-26T01:28:27.117Z,28.00
2018-11-26T01:30:55.346Z,27.40
2018-11-26T01:33:23.602Z,25.10
2018-11-26T01:35:52.098Z,25.90
2018-11-26T01:38:20.717Z,26.83
2018-11-26T01:40:52.300Z,28.03
2018-11-26T01:43:21.725Z,27.70
2018-11-26T01:45:50.258Z,26.47
2018-11-26T01:48:18.905Z,27.90
2018-11-26T01:50:47.506Z,27.80
2018-11-26T01:53:16.025Z,29.07
2018-11-26T01:55:44.565Z,28.47
2018-11-26T01:58:13.317Z,26.40
2018-11-26T02:00:41.825Z,25.90
2018-11-26T02:03:10.557Z,28.57
2018-11-26T02:05:39.105Z,26.60
2018-11-26T02:08:07.805Z,27.90
2018-11-26T02:10:36.425Z,25.20
2018-11-26T02:13:05.180Z,26.50
2018-11-26T02:15:42.422Z,28.03
2018-11-26T02:18:11.607Z,27.50
2018-11-26T02:20:40.218Z,25.80
2018-11-26T02:23:09.220Z,26.67
2018-11-26T02:25:37.906Z,28.33
2018-11-26T02:28:07.328Z,28.63
2018-11-26T02:30:35.946Z,27.90
2018-11-26T02:33:04.547Z,27.87
2018-11-26T02:35:32.846Z,28.27
2018-11-26T02:38:01.006Z,26.50
2018-11-26T02:40:32.588Z,26.43
2018-11-26T02:43:01.227Z,27.03
2018-11-26T02:45:29.898Z,28.00
2018-11-26T02:47:58.192Z,27.93
2018-11-26T02:50:26.594Z,29.70
2018-11-26T02:52:54.845Z,27.93
2018-11-26T02:55:23.060Z,31.17
2018-11-26T02:57:51.225Z,29.60
2018-11-26T03:00:20.306Z,26.80
2018-11-26T03:02:48.529Z,26.80
2018-11-26T03:05:24.826Z,26.53
2018-11-26T03:07:53.286Z,26.53
2018-11-26T03:10:21.945Z,26.80
2018-11-26T03:12:50.146Z,28.17
2018-11-26T03:15:18.525Z,26.30
2018-11-26T03:17:46.826Z,26.57
2018-11-26T03:20:15.088Z,30.57
2018-11-26T03:22:43.226Z,27.00
2018-11-26T03:25:12.026Z,27.67
2018-11-26T03:27:40.298Z,28.47
2018-11-26T03:30:22.946Z,27.57
2018-11-26T03:32:51.078Z,27.87
2018-11-26T03:35:19.426Z,26.70
2018-11-26T03:37:47.557Z,26.63
2018-11-26T03:40:15.871Z,28.57
2018-11-26T03:42:44.490Z,26.77
2018-11-26T03:45:15.857Z,26.40
2018-11-26T03:47:44.065Z,25.23
2018-11-26T03:50:13.290Z,26.17
2018-11-26T03:52:42.568Z,25.57
2018-11-26T03:55:11.966Z,27.63
2018-11-26T03:57:40.185Z,26.47
2018-11-26T04:00:13.570Z,26.93
2018-11-26T04:02:41.798Z,26.30
2018-11-26T04:05:10.637Z,24.77
2018-11-26T04:07:38.817Z,27.63
2018-11-26T04:10:10.032Z,28.87
2018-11-26T04:12:38.286Z,28.77
2018-11-26T04:15:08.205Z,28.13
2018-11-26T04:17:36.486Z,25.33
2018-11-26T04:20:05.038Z,28.10
2018-11-26T04:22:33.746Z,28.07
2018-11-26T04:25:02.246Z,28.13
2018-11-26T04:27:30.626Z,25.57
2018-11-26T04:29:59.006Z,27.80
2018-11-26T04:32:27.220Z,29.20
2018-11-26T04:34:55.606Z,25.50
2018-11-26T04:37:23.828Z,27.17
2018-11-26T04:39:52.107Z,23.53
2018-11-26T04:42:20.357Z,27.03
2018-11-26T04:44:48.607Z,26.67
2018-11-26T04:47:16.846Z,28.03
2018-11-26T04:49:45.186Z,28.20
2018-11-26T04:52:13.427Z,28.30
2018-11-26T04:54:41.706Z,26.70
2018-11-26T04:57:09.986Z,26.43
2018-11-26T04:59:38.186Z,27.47
2018-11-26T05:02:06.446Z,25.87
2018-11-26T05:04:34.706Z,24.73
2018-11-26T05:07:02.986Z,27.70
2018-11-26T05:09:31.501Z,26.07
2018-11-26T05:11:59.746Z,26.00
2018-11-26T05:14:28.138Z,24.87
2018-11-26T05:16:56.775Z,24.73
2018-11-26T05:19:24.879Z,24.43
2018-11-26T05:21:53.106Z,26.70
2018-11-26T05:24:21.373Z,25.33
2018-11-26T05:26:49.765Z,25.20
2018-11-26T05:29:18.126Z,23.83
2018-11-26T05:31:46.357Z,24.13
2018-11-26T05:34:14.634Z,26.67
2018-11-26T05:36:42.785Z,25.57
2018-11-26T05:39:10.978Z,27.70
2018-11-26T05:41:39.146Z,24.27
2018-11-26T05:44:07.426Z,25.03
2018-11-26T05:46:35.749Z,26.33
2018-11-26T05:49:03.922Z,26.07
2018-11-26T05:51:33.801Z,25.60
2018-11-26T05:54:02.034Z,25.20
2018-11-26T05:56:30.739Z,25.40
2018-11-26T05:58:58.966Z,27.53
2018-11-26T06:01:27.225Z,27.50
2018-11-26T06:03:55.417Z,25.57
2018-11-26T06:06:23.729Z,25.53
2018-11-26T06:08:51.959Z,25.97
2018-11-26T06:11:20.238Z,27.87
2018-11-26T06:13:48.458Z,27.67
2018-11-26T06:16:16.926Z,25.50
2018-11-26T06:18:45.185Z,26.73
2018-11-26T06:21:13.487Z,25.10
2018-11-26T06:23:41.680Z,28.00
2018-11-26T06:26:10.281Z,27.90
2018-11-26T06:28:38.578Z,28.43
2018-11-26T06:31:07.017Z,33.70
2018-11-26T06:33:35.705Z,30.17
2018-11-26T06:36:04.001Z,31.03
2018-11-26T06:38:32.258Z,29.40
2018-11-26T06:41:00.517Z,30.03
2018-11-26T06:43:28.727Z,28.63
2018-11-26T06:45:57.917Z,29.60
2018-11-26T06:48:26.325Z,31.23
2018-11-26T06:50:54.598Z,30.73
2018-11-26T06:53:23.018Z,31.87
2018-11-26T06:55:52.658Z,29.97
2018-11-26T06:58:21.299Z,31.23
2018-11-26T07:00:49.824Z,29.87
2018-11-26T07:03:22.539Z,29.57
2018-11-26T07:05:50.898Z,28.53
2018-11-26T07:08:19.645Z,29.33
2018-11-26T07:10:47.926Z,32.93
2018-11-26T07:13:20.257Z,30.53
2018-11-26T07:15:48.845Z,35.80
2018-11-26T07:18:17.325Z,33.97
2018-11-26T07:20:45.645Z,32.57
2018-11-26T07:23:13.897Z,33.27
2018-11-26T07:25:42.178Z,34.90
2018-11-26T07:28:10.418Z,34.87
2018-11-26T07:30:39.305Z,32.43
2018-11-26T07:33:07.645Z,32.83
2018-11-26T07:35:36.238Z,36.03
2018-11-26T07:38:04.427Z,34.80
2018-11-26T07:40:32.597Z,31.40
2018-11-26T07:43:04.838Z,31.10
2018-11-26T07:45:33.097Z,31.27
2018-11-26T07:48:01.465Z,31.60
2018-11-26T07:50:29.638Z,32.50
2018-11-26T07:52:57.897Z,30.47
2018-11-26T07:55:26.129Z,30.87
2018-11-26T07:57:54.506Z,31.47
2018-11-26T08:00:23.485Z,31.10
2018-11-26T08:02:51.938Z,27.90
2018-11-26T08:05:21.986Z,30.37
2018-11-26T08:07:50.418Z,30.27
2018-11-26T08:10:21.812Z,30.50
2018-11-26T08:12:51.137Z,32.57
2018-11-26T08:15:23.565Z,30.13
2018-11-26T08:17:51.798Z,30.90
2018-11-26T08:20:20.999Z,30.13
2018-11-26T08:22:49.298Z,31.53
2018-11-26T08:25:19.898Z,30.27
2018-11-26T08:27:48.817Z,28.87
2018-11-26T08:30:26.377Z,27.87
2018-11-26T08:33:00.167Z,28.50
2018-11-26T08:35:28.581Z,28.80
2018-11-26T08:38:02.306Z,29.60
2018-11-26T08:42:39.065Z,29.67
2018-11-26T08:45:14.320Z,26.80
2018-11-26T08:47:42.685Z,28.10
2018-11-26T08:50:11.132Z,28.80
2018-11-26T08:52:39.819Z,26.07
2018-11-26T08:55:08.502Z,29.43
2018-11-26T08:57:36.877Z,28.40
2018-11-26T09:00:05.831Z,25.07
2018-11-26T09:02:38.338Z,24.50
2018-11-26T09:05:15.417Z,30.40
2018-11-26T09:07:44.079Z,25.90
2018-11-26T09:10:12.447Z,29.30
2018-11-26T09:12:41.297Z,25.17
2018-11-26T09:15:10.518Z,26.20
2018-11-26T09:17:38.817Z,23.50
2018-11-26T09:20:10.297Z,25.87
2018-11-26T09:22:38.557Z,27.03
2018-11-26T09:25:12.677Z,25.90
2018-11-26T09:27:41.358Z,24.73
2018-11-26T09:30:12.797Z,24.83
2018-11-26T09:32:42.178Z,24.83
2018-11-26T09:35:14.006Z,29.30
2018-11-26T09:37:42.594Z,25.73
2018-11-26T09:40:13.238Z,26.13
2018-11-26T09:42:41.959Z,25.77
2018-11-26T09:45:12.645Z,24.00
2018-11-26T09:47:41.257Z,23.57
2018-11-26T09:50:13.446Z,25.40
2018-11-26T09:52:41.946Z,23.37
2018-11-26T09:55:11.149Z,23.63
2018-11-26T09:57:39.488Z,25.17
2018-11-26T10:00:11.427Z,24.03
2018-11-26T10:02:40.339Z,22.03
2018-11-26T10:05:12.486Z,23.83
2018-11-26T10:07:40.968Z,25.17
2018-11-26T10:10:11.718Z,24.87
2018-11-26T10:12:40.726Z,25.37
2018-11-26T10:15:18.087Z,22.80
2018-11-26T10:17:46.445Z,25.63
2018-11-26T10:20:14.965Z,23.73
2018-11-26T10:22:43.827Z,21.30
2018-11-26T10:25:15.066Z,22.17
2018-11-26T10:27:43.778Z,21.83
2018-11-26T10:30:13.958Z,21.93
2018-11-26T10:32:43.665Z,24.73
2018-11-26T10:35:13.166Z,24.00
2018-11-26T10:37:41.565Z,22.73
2018-11-26T10:40:12.006Z,23.87
2018-11-26T10:42:40.306Z,25.33
2018-11-26T10:45:11.718Z,24.10
2018-11-26T10:47:40.138Z,22.83
2018-11-26T10:50:11.799Z,23.03
2018-11-26T10:52:40.918Z,24.80
2018-11-26T10:55:15.118Z,23.43
2018-11-26T10:57:43.666Z,24.07
2018-11-26T11:00:18.999Z,23.00
2018-11-26T11:02:47.299Z,22.77
2018-11-26T11:05:15.457Z,21.30
2018-11-26T11:07:43.897Z,25.57
2018-11-26T11:10:15.157Z,21.20
2018-11-26T11:12:43.837Z,23.27
2018-11-26T11:15:13.039Z,25.93
2018-11-26T11:17:41.217Z,25.37
2018-11-26T11:20:15.337Z,22.97
2018-11-26T11:22:43.717Z,24.13
2018-11-26T11:25:13.417Z,24.30
2018-11-26T11:30:17.917Z,24.70
2018-11-26T11:32:46.496Z,23.03
2018-11-26T11:35:15.297Z,25.10
2018-11-26T11:37:45.545Z,21.33
2018-11-26T11:40:15.096Z,23.67
2018-11-26T11:42:43.396Z,25.60
2018-11-26T11:45:13.516Z,21.87
2018-11-26T11:47:41.796Z,21.67
2018-11-26T11:50:12.224Z,21.20
2018-11-26T11:52:40.497Z,21.83
2018-11-26T11:55:14.436Z,22.10
2018-11-26T11:57:42.757Z,22.57
2018-11-26T12:00:49.787Z,24.13
2018-11-26T12:03:19.263Z,17.83
2018-11-26T12:05:47.957Z,21.77
2018-11-26T12:08:16.364Z,21.90
2018-11-26T12:10:44.625Z,19.67
2018-11-26T12:13:13.897Z,21.10
2018-11-26T12:15:52.580Z,19.47
2018-11-26T12:18:20.897Z,20.73
2018-11-26T12:20:49.376Z,20.83
2018-11-26T12:23:17.680Z,19.73
2018-11-26T12:25:45.944Z,20.23
2018-11-26T12:28:14.337Z,21.63
2018-11-26T12:30:45.716Z,23.17
2018-11-26T12:33:14.097Z,21.07
2018-11-26T12:35:42.456Z,19.43
2018-11-26T12:38:10.896Z,21.07
2018-11-26T12:40:39.233Z,20.13
2018-11-26T12:43:07.785Z,21.57
2018-11-26T12:45:36.114Z,22.20
2018-11-26T12:48:04.424Z,22.63
2018-11-26T12:50:32.738Z,20.83
2018-11-26T12:53:00.956Z,22.07
2018-11-26T12:55:29.101Z,25.77
2018-11-26T12:57:57.876Z,21.03
2018-11-26T13:00:27.021Z,20.53
2018-11-26T13:03:13.019Z,24.30
2018-11-26T13:05:41.519Z,22.40
2018-11-26T13:08:10.498Z,23.30
2018-11-26T13:10:38.985Z,20.83
2018-11-26T13:13:08.416Z,20.20
2018-11-26T13:15:36.617Z,21.67
2018-11-26T13:18:05.036Z,19.87
2018-11-26T13:20:33.197Z,23.43
2018-11-26T13:23:01.425Z,20.77
2018-11-26T13:25:33.576Z,18.90
2018-11-26T13:28:05.157Z,22.27
2018-11-26T13:30:51.518Z,20.13
2018-11-26T13:33:20.017Z,17.47
2018-11-26T13:35:49.228Z,18.37
2018-11-26T13:38:17.444Z,17.63
2018-11-26T13:40:45.985Z,18.67
2018-11-26T13:43:15.557Z,17.20
2018-11-26T13:45:45.107Z,18.80
2018-11-26T13:48:14.631Z,18.53
2018-11-26T13:50:51.825Z,18.20
2018-11-26T13:53:20.225Z,18.63
2018-11-26T13:55:48.452Z,16.67
2018-11-26T13:58:16.708Z,17.63
2018-11-26T14:00:44.985Z,19.37
2018-11-26T14:03:13.205Z,16.53
2018-11-26T14:05:41.547Z,19.30
2018-11-26T14:08:09.805Z,17.67
2018-11-26T14:10:38.366Z,17.90
2018-11-26T14:13:12.205Z,17.57
2018-11-26T14:15:40.516Z,18.60
2018-11-26T14:18:08.826Z,17.53
2018-11-26T14:20:37.066Z,15.17
2018-11-26T14:23:05.786Z,17.73
2018-11-26T14:25:34.085Z,16.10
2018-11-26T14:28:02.226Z,17.37
2018-11-26T14:30:30.705Z,18.87
2018-11-26T14:32:59.267Z,15.97
2018-11-26T14:35:32.185Z,16.83
2018-11-26T14:38:06.085Z,16.07
2018-11-26T14:40:36.177Z,17.13
2018-11-26T14:43:04.498Z,16.13
2018-11-26T14:45:32.869Z,16.73
2018-11-26T14:48:01.145Z,15.13
2018-11-26T14:50:29.485Z,16.80
2018-11-26T14:52:58.007Z,17.20
2018-11-26T14:55:29.546Z,15.17
2018-11-26T14:57:58.693Z,15.17
2018-11-26T15:00:27.585Z,15.73
2018-11-26T15:02:55.879Z,14.70
2018-11-26T15:05:24.185Z,16.20
2018-11-26T15:07:52.426Z,15.83
2018-11-26T15:10:21.833Z,15.67
2018-11-26T15:12:50.245Z,15.00
2018-11-26T15:15:19.758Z,15.23
2018-11-26T15:17:48.237Z,15.30
2018-11-26T15:20:19.565Z,15.77
2018-11-26T15:22:48.185Z,17.33
2018-11-26T15:25:18.125Z,17.60
2018-11-26T15:27:46.525Z,18.03
2018-11-26T15:30:17.679Z,17.87
2018-11-26T15:32:46.041Z,18.60
2018-11-26T15:35:15.337Z,16.90
2018-11-26T15:37:43.677Z,17.23
2018-11-26T15:40:13.665Z,17.27
2018-11-26T15:42:42.125Z,14.97
2018-11-26T15:45:17.238Z,15.97
2018-11-26T15:47:45.657Z,13.77
2018-11-26T15:50:13.917Z,12.53
2018-11-26T15:52:42.137Z,15.20
2018-11-26T15:55:12.539Z,14.47
2018-11-26T15:57:40.877Z,13.10
2018-11-26T16:00:14.420Z,14.83
2018-11-26T16:02:42.744Z,15.13
2018-11-26T16:05:19.728Z,14.73
2018-11-26T16:07:48.926Z,17.00
2018-11-26T16:10:17.185Z,17.23
2018-11-26T16:12:46.907Z,14.93
2018-11-26T16:15:23.985Z,18.13
2018-11-26T16:17:53.066Z,16.80
2018-11-26T16:20:23.105Z,16.53
2018-11-26T16:22:51.437Z,17.03
2018-11-26T16:25:21.145Z,18.63
2018-11-26T16:27:49.417Z,17.93
2018-11-26T16:30:18.524Z,17.73
2018-11-26T16:32:49.757Z,19.33
2018-11-26T16:35:20.157Z,18.00
2018-11-26T16:37:48.518Z,17.93
2018-11-26T16:40:17.285Z,16.10
2018-11-26T16:42:45.537Z,18.83
2018-11-26T16:45:17.876Z,19.47
2018-11-26T16:47:47.157Z,17.73
2018-11-26T16:50:16.508Z,18.07
2018-11-26T16:52:44.885Z,20.27
2018-11-26T16:55:14.278Z,19.70
2018-11-26T16:57:42.605Z,21.13
2018-11-26T17:00:17.865Z,21.83
2018-11-26T17:02:46.977Z,18.90
2018-11-26T17:05:20.797Z,18.77
2018-11-26T17:07:48.985Z,19.03
2018-11-26T17:10:17.197Z,19.07
2018-11-26T17:12:45.457Z,18.83
2018-11-26T17:15:15.459Z,19.33
2018-11-26T17:17:43.697Z,18.93
2018-11-26T17:20:13.878Z,18.50
2018-11-26T17:22:42.421Z,19.30
2018-11-26T17:25:11.785Z,17.73
2018-11-26T17:27:40.737Z,19.80
2018-11-26T17:30:14.277Z,17.27
2018-11-26T17:32:42.458Z,19.20
2018-11-26T17:35:11.898Z,20.43
2018-11-26T17:37:42.883Z,18.20
2018-11-26T17:40:16.457Z,20.10
2018-11-26T17:42:45.544Z,18.43
2018-11-26T17:45:14.637Z,18.80
2018-11-26T17:47:45.545Z,19.13
2018-11-26T17:50:45.585Z,19.47
2018-11-26T17:53:17.317Z,19.23
2018-11-26T17:55:49.619Z,19.40
2018-11-26T17:58:18.747Z,17.63
2018-11-26T18:00:52.545Z,18.80
2018-11-26T18:03:20.758Z,18.20
2018-11-26T18:05:49.297Z,18.23
2018-11-26T18:08:18.337Z,18.80
2018-11-26T18:10:46.837Z,18.20
2018-11-26T18:13:15.166Z,20.57
2018-11-26T18:15:43.477Z,17.47
2018-11-26T18:18:14.837Z,21.53
2018-11-26T18:20:43.245Z,19.47
2018-11-26T18:23:11.785Z,20.37
2018-11-26T18:25:40.157Z,19.60
2018-11-26T18:28:10.762Z,19.67
2018-11-26T18:30:43.345Z,19.30
2018-11-26T18:33:11.538Z,19.80
2018-11-26T18:35:40.518Z,18.73
2018-11-26T18:38:08.877Z,19.07
2018-11-26T18:40:38.537Z,21.87
2018-11-26T18:43:08.197Z,20.83
2018-11-26T18:45:37.685Z,19.07
2018-11-26T18:48:06.658Z,20.83
2018-11-26T18:50:35.157Z,20.23
2018-11-26T18:53:03.494Z,20.80
2018-11-26T18:55:31.860Z,20.97
2018-11-26T18:58:00.258Z,19.43
2018-11-26T19:00:30.837Z,19.63
2018-11-26T19:02:59.286Z,21.00
2018-11-26T19:05:27.637Z,21.87
2018-11-26T19:07:56.139Z,22.90
2018-11-26T19:10:27.465Z,20.37
2018-11-26T19:13:14.987Z,20.27
2018-11-26T19:15:48.800Z,20.70
2018-11-26T19:18:24.885Z,20.70
2018-11-26T19:20:53.716Z,23.93
2018-11-26T19:23:22.857Z,21.70
2018-11-26T19:25:52.197Z,22.90
2018-11-26T19:28:20.670Z,22.33
2018-11-26T19:30:49.125Z,23.67
2018-11-26T19:33:17.505Z,22.20
2018-11-26T19:35:45.897Z,21.63
2018-11-26T19:38:14.105Z,23.93
2018-11-26T19:40:42.836Z,21.10
2018-11-26T19:43:11.277Z,22.67
2018-11-26T19:45:39.676Z,22.47
2018-11-26T19:48:08.756Z,24.57
2018-11-26T19:50:38.929Z,22.10
2018-11-26T19:53:09.636Z,24.37
2018-11-26T19:55:38.276Z,25.90
2018-11-26T19:58:08.997Z,26.33
2018-11-26T20:00:38.278Z,28.07
2018-11-26T20:03:15.118Z,26.80
2018-11-26T20:06:11.116Z,27.47
2018-11-26T20:08:40.284Z,27.53
2018-11-26T20:11:08.956Z,28.47
2018-11-26T20:13:38.116Z,26.40
2018-11-26T20:16:10.797Z,26.80
2018-11-26T20:18:39.277Z,25.70
2018-11-26T20:21:07.796Z,28.20
2018-11-26T20:23:36.404Z,28.47
2018-11-26T20:26:05.337Z,27.43
2018-11-26T20:28:34.656Z,28.47
2018-11-26T20:31:03.216Z,27.77
2018-11-26T20:33:31.656Z,26.70
2018-11-26T20:36:00.017Z,28.53
2018-11-26T20:38:28.256Z,27.63
2018-11-26T20:40:56.646Z,28.17
2018-11-26T20:43:25.116Z,27.30
2018-11-26T20:45:53.724Z,26.03
2018-11-26T20:48:22.137Z,28.03
2018-11-26T20:50:51.998Z,26.33
2018-11-26T20:53:23.556Z,26.10
2018-11-26T20:55:51.878Z,26.57
2018-11-26T20:58:20.205Z,26.73
2018-11-26T21:00:48.506Z,26.13
2018-11-26T21:03:16.897Z,25.50
2018-11-26T21:05:45.265Z,27.73
2018-11-26T21:08:13.537Z,25.53
2018-11-26T21:10:42.017Z,25.43
2018-11-26T21:13:10.446Z,24.93
2018-11-26T21:15:38.784Z,24.83
2018-11-26T21:18:11.185Z,24.63
2018-11-26T21:20:46.123Z,24.23
2018-11-26T21:23:18.564Z,25.50
2018-11-26T21:25:46.946Z,23.87
2018-11-26T21:28:15.505Z,26.93
2018-11-26T21:30:43.897Z,24.30
2018-11-26T21:33:12.365Z,26.03
2018-11-26T21:35:40.546Z,24.53
2018-11-26T21:38:10.800Z,22.80
2018-11-26T21:40:40.878Z,25.30
2018-11-26T21:43:10.585Z,23.43
2018-11-26T21:45:59.236Z,24.07
2018-11-26T21:48:27.564Z,22.80
2018-11-26T21:50:55.805Z,23.67
2018-11-26T21:53:25.305Z,24.17
2018-11-26T21:55:53.596Z,23.57
2018-11-26T21:58:21.937Z,22.20
2018-11-26T22:00:51.764Z,24.63
2018-11-26T22:03:20.065Z,24.00
2018-11-26T22:05:48.524Z,21.73
2018-11-26T22:08:16.759Z,20.90
2018-11-26T22:10:45.104Z,22.37
2018-11-26T22:13:16.925Z,20.30
2018-11-26T22:15:45.276Z,21.03
2018-11-26T22:18:13.546Z,21.73
2018-11-26T22:20:41.837Z,22.50
2018-11-26T22:23:10.085Z,23.40
2018-11-26T22:25:38.326Z,21.40
2018-11-26T22:28:08.856Z,22.13
2018-11-26T22:30:38.556Z,20.63
2018-11-26T22:33:06.844Z,20.80
2018-11-26T22:35:35.117Z,19.80
2018-11-26T22:38:03.333Z,21.13
2018-11-26T22:40:31.585Z,21.27
2018-11-26T22:42:59.856Z,19.67
2018-11-26T22:45:31.345Z,22.90
2018-11-26T22:48:14.704Z,19.53
2018-11-26T22:50:48.586Z,18.73
2018-11-26T22:53:16.778Z,19.17
2018-11-26T22:55:44.965Z,18.50
2018-11-26T22:58:14.207Z,20.57
2018-11-26T23:00:57.845Z,18.10
2018-11-26T23:03:26.578Z,18.63
2018-11-26T23:05:54.881Z,19.97
2018-11-26T23:08:23.076Z,19.80
2018-11-26T23:10:51.276Z,19.50
2018-11-26T23:13:19.459Z,18.47
2018-11-26T23:15:47.976Z,18.73
2018-11-26T23:18:16.384Z,19.00
2018-11-26T23:20:44.684Z,19.00
2018-11-26T23:23:15.436Z,18.83
2018-11-26T23:25:43.676Z,17.53
2018-11-26T23:28:11.856Z,17.87
2018-11-26T23:30:40.244Z,17.87
2018-11-26T23:33:08.724Z,17.60
2018-11-26T23:35:37.159Z,17.80
2018-11-26T23:38:05.436Z,18.20
2018-11-26T23:40:34.216Z,16.67
2018-11-26T23:43:02.184Z,17.23
2018-11-26T23:45:30.724Z,18.00
2018-11-26T23:47:58.884Z,18.27
2018-11-26T23:50:27.385Z,19.60
2018-11-26T23:52:55.727Z,18.53
2018-11-26T23:55:24.604Z,15.83
2018-11-26T23:57:52.846Z,17.60
